This is the latest recevied weather packets stored in our database for station/object TG8AKV-17. If no packets are shown the sender has not sent any weather packets the latest 10 day(s).
| Time | Temp. | Humidity | Pressure | Rain* | Wind** | Luminosity | Snow |
|---|---|---|---|---|---|---|---|
| 1777737936 | 17.78° C | 61% | 1016 hPa | 0 mm | - | - | - |
| 1777737336 | 17.78° C | 58% | 1016 hPa | 0 mm | - | - | - |
| 1777736735 | 17.78° C | 60% | 1016 hPa | 0 mm | - | - | - |
| 1777736134 | 17.78° C | 62% | 1016 hPa | 0 mm | - | - | - |
| 1777735534 | 17.78° C | 64% | 1016 hPa | 0 mm | - | - | - |
| 1777734933 | 17.78° C | 67% | 1016 hPa | 0 mm | - | - | - |
| 1777734332 | 15° C | 63% | 1016 hPa | 0 mm | - | - | - |
| 1777733732 | 15° C | 63% | 1016 hPa | 0 mm | - | - | - |
| 1777733131 | 15° C | 63% | 1016 hPa | 0 mm | - | - | - |
| 1777732531 | 15° C | 63% | 1016 hPa | 0 mm | - | - | - |
| 1777731930 | 15° C | 63% | 1016 hPa | 0 mm | - | - | - |
| 1777731329 | 15° C | 63% | 1016 hPa | 0 mm | - | - | - |
| 1777730729 | 8.89° C | 10% | - | 0 mm | - | - | - |
| 1777730128 | 8.89° C | 10% | - | 0 mm | - | - | - |
| 1777729527 | 12.22° C | 82% | 1016 hPa | 0 mm | - | - | - |
| 1777728927 | 12.22° C | 82% | 1016 hPa | 0 mm | - | - | - |
| 1777728326 | 11.67° C | 83% | 1017 hPa | 0 mm | - | - | - |
| 1777727726 | 8.89° C | 96% | 1017 hPa | 0 mm | - | - | - |
| 1777727125 | 8.89° C | 96% | 1017 hPa | 0 mm | - | - | - |
| 1777726524 | 8.89° C | 10% | - | 0 mm | - | - | - |
| 1777725924 | 8.89° C | 10% | - | 0 mm | - | - | - |
| 1777725322 | 9.44° C | 96% | 1017 hPa | 0 mm | - | - | - |
| 1777724721 | 9.44° C | 95% | 1017 hPa | 0 mm | - | - | - |
| 1777724121 | 9.44° C | 93% | 1017 hPa | 0 mm | - | - | - |
| 1777721718 | 10° C | 90% | 1017 hPa | 0 mm | - | - | - |
* Rain latest hour (hover to see other rain measurements)
** Current wind speed in m/s (hover to see current wind gust speed)